createdAt,value
2018-02-04T14:21:12.619Z,6.25
2018-02-04T14:23:40.137Z,6.60
2018-02-04T14:43:25.643Z,7.57
2018-02-04T14:45:53.213Z,7.20
2018-02-04T14:48:21.490Z,7.25
2018-02-04T14:50:49.754Z,8.27
2018-02-04T15:13:29.107Z,13.05
2018-02-04T15:15:56.628Z,9.85
2018-02-04T15:18:24.173Z,12.63
2018-02-04T15:20:51.692Z,10.38
2018-02-04T15:43:30.203Z,11.63
2018-02-04T15:45:57.728Z,10.52
2018-02-04T15:48:26.007Z,13.55
2018-02-04T15:50:54.280Z,10.38
2018-02-04T15:53:22.558Z,9.45
2018-02-04T15:55:50.836Z,14.05
2018-02-04T15:58:19.117Z,13.05
2018-02-04T16:00:47.587Z,11.15
2018-02-04T16:03:15.886Z,9.80
2018-02-04T16:05:44.190Z,13.95
2018-02-04T16:08:11.749Z,13.68
2018-02-04T16:10:39.266Z,11.68
2018-02-04T16:13:06.797Z,14.90
2018-02-04T16:15:34.323Z,15.45
2018-02-04T16:18:01.848Z,13.55
2018-02-04T16:20:30.127Z,17.37
2018-02-04T16:43:12.131Z,15.07
2018-02-04T17:05:49.417Z,20.73
2018-02-04T17:08:16.942Z,24.02
2018-02-04T17:10:44.469Z,21.15
2018-02-04T17:13:12.048Z,24.67
2018-02-04T17:15:39.575Z,21.55
2018-02-04T17:18:07.091Z,27.80
2018-02-04T17:20:34.609Z,16.95
2018-02-04T17:23:02.220Z,21.67
2018-02-04T17:25:30.506Z,19.33
2018-02-04T17:27:58.020Z,22.67
2018-02-04T17:30:26.311Z,23.85
2018-02-04T17:32:53.832Z,24.35
2018-02-04T17:53:01.262Z,30.80
2018-02-04T17:55:28.781Z,25.33
2018-02-04T17:57:56.317Z,24.20
2018-02-04T18:00:23.888Z,28.15
2018-02-04T18:02:52.183Z,21.92
2018-02-04T18:25:30.950Z,28.10
2018-02-04T18:27:58.476Z,35.10
2018-02-04T18:47:44.933Z,32.92
2018-02-04T18:50:12.466Z,39.25
2018-02-04T18:52:39.991Z,38.45
2018-02-04T18:55:07.505Z,37.72
2018-02-04T19:14:53.558Z,42.00
2018-02-04T19:17:21.083Z,35.08
2018-02-04T19:37:21.607Z,39.78
2018-02-04T19:57:29.481Z,46.55
2018-02-04T19:59:57.267Z,40.10
2018-02-04T20:02:24.827Z,41.65
2018-02-04T20:04:52.418Z,45.60
2018-02-04T20:07:20.720Z,48.35
2018-02-04T20:27:06.673Z,37.08
2018-02-04T20:46:53.749Z,47.95
2018-02-04T21:09:33.283Z,48.75
2018-02-04T21:12:00.807Z,41.60
2018-02-04T21:34:38.931Z,45.33
2018-02-04T21:37:07.287Z,39.65
2018-02-04T21:39:34.842Z,42.30
2018-02-04T21:42:02.458Z,37.58
2018-02-04T22:01:47.390Z,39.72
2018-02-04T22:04:14.908Z,43.30
2018-02-04T22:06:42.416Z,40.90
2018-02-04T22:26:28.159Z,34.35
2018-02-04T22:28:55.676Z,40.95
2018-02-04T22:48:39.463Z,42.78
2018-02-04T23:11:19.652Z,43.08
2018-02-04T23:13:47.927Z,39.10
2018-02-04T23:33:35.401Z,45.35
2018-02-04T23:36:02.946Z,47.97
2018-02-04T23:38:30.457Z,53.00
2018-02-04T23:40:57.979Z,43.70
2018-02-04T23:43:25.504Z,55.58
2018-02-04T23:45:53.817Z,53.28
2018-02-04T23:48:21.341Z,48.55
2018-02-04T23:50:48.875Z,44.78
